sensor_id;sensor_type;location;lat;lon;timestamp;P1;durP1;ratioP1;P2;durP2;ratioP2
351;SDS011;164;50.784;6.496;2024-01-10T00:01:10;3.90;;;3.72;;
351;SDS011;164;50.784;6.496;2024-01-10T00:03:37;2.88;;;2.70;;
351;SDS011;164;50.784;6.496;2024-01-10T00:06:04;7.50;;;4.22;;
351;SDS011;164;50.784;6.496;2024-01-10T00:08:32;5.05;;;3.20;;
351;SDS011;164;50.784;6.496;2024-01-10T00:10:59;6.53;;;5.18;;
351;SDS011;164;50.784;6.496;2024-01-10T00:13:26;7.30;;;5.80;;
351;SDS011;164;50.784;6.496;2024-01-10T00:15:53;4.18;;;3.95;;
351;SDS011;164;50.784;6.496;2024-01-10T00:18:25;4.65;;;2.95;;
351;SDS011;164;50.784;6.496;2024-01-10T00:20:52;4.82;;;3.40;;
351;SDS011;164;50.784;6.496;2024-01-10T00:23:19;5.93;;;3.38;;
351;SDS011;164;50.784;6.496;2024-01-10T00:25:47;4.13;;;3.72;;
351;SDS011;164;50.784;6.496;2024-01-10T00:28:14;9.23;;;4.25;;
351;SDS011;164;50.784;6.496;2024-01-10T00:30:43;5.38;;;4.13;;
351;SDS011;164;50.784;6.496;2024-01-10T00:33:10;3.80;;;3.40;;
351;SDS011;164;50.784;6.496;2024-01-10T00:35:38;4.00;;;3.10;;
351;SDS011;164;50.784;6.496;2024-01-10T00:38:06;5.20;;;4.05;;
351;SDS011;164;50.784;6.496;2024-01-10T00:40:33;5.65;;;4.03;;
351;SDS011;164;50.784;6.496;2024-01-10T00:43:01;5.82;;;4.57;;
351;SDS011;164;50.784;6.496;2024-01-10T00:45:29;6.68;;;4.78;;
351;SDS011;164;50.784;6.496;2024-01-10T00:47:56;5.75;;;3.92;;
351;SDS011;164;50.784;6.496;2024-01-10T00:50:23;5.72;;;4.93;;
351;SDS011;164;50.784;6.496;2024-01-10T00:52:52;5.00;;;3.42;;
351;SDS011;164;50.784;6.496;2024-01-10T00:55:19;3.50;;;3.05;;
351;SDS011;164;50.784;6.496;2024-01-10T00:57:46;6.80;;;4.75;;
351;SDS011;164;50.784;6.496;2024-01-10T01:00:14;4.28;;;3.95;;
351;SDS011;164;50.784;6.496;2024-01-10T01:02:41;9.98;;;6.72;;
351;SDS011;164;50.784;6.496;2024-01-10T01:05:08;7.45;;;3.40;;
351;SDS011;164;50.784;6.496;2024-01-10T01:07:36;7.72;;;3.42;;
351;SDS011;164;50.784;6.496;2024-01-10T01:10:05;8.20;;;4.70;;
351;SDS011;164;50.784;6.496;2024-01-10T01:12:33;5.95;;;4.60;;
351;SDS011;164;50.784;6.496;2024-01-10T01:15:00;6.43;;;3.45;;
351;SDS011;164;50.784;6.496;2024-01-10T01:17:28;6.10;;;3.65;;
351;SDS011;164;50.784;6.496;2024-01-10T01:19:55;5.60;;;4.80;;
351;SDS011;164;50.784;6.496;2024-01-10T01:22:22;8.60;;;4.43;;
351;SDS011;164;50.784;6.496;2024-01-10T01:24:49;5.28;;;3.60;;
351;SDS011;164;50.784;6.496;2024-01-10T01:27:18;6.20;;;3.08;;
351;SDS011;164;50.784;6.496;2024-01-10T01:29:45;6.82;;;5.10;;
351;SDS011;164;50.784;6.496;2024-01-10T01:32:12;4.63;;;3.85;;
351;SDS011;164;50.784;6.496;2024-01-10T01:34:39;4.38;;;3.88;;
351;SDS011;164;50.784;6.496;2024-01-10T01:37:06;6.13;;;3.33;;
351;SDS011;164;50.784;6.496;2024-01-10T01:39:34;4.65;;;3.28;;
351;SDS011;164;50.784;6.496;2024-01-10T01:42:01;4.30;;;3.08;;
351;SDS011;164;50.784;6.496;2024-01-10T01:44:30;5.13;;;4.22;;
351;SDS011;164;50.784;6.496;2024-01-10T01:46:57;4.25;;;3.90;;
351;SDS011;164;50.784;6.496;2024-01-10T01:49:24;5.97;;;4.68;;
351;SDS011;164;50.784;6.496;2024-01-10T01:51:52;7.43;;;3.97;;
351;SDS011;164;50.784;6.496;2024-01-10T01:54:19;8.38;;;4.97;;
351;SDS011;164;50.784;6.496;2024-01-10T01:56:46;7.10;;;4.63;;
351;SDS011;164;50.784;6.496;2024-01-10T01:59:14;5.95;;;4.05;;
351;SDS011;164;50.784;6.496;2024-01-10T02:01:42;5.85;;;5.25;;
351;SDS011;164;50.784;6.496;2024-01-10T02:04:09;7.50;;;4.82;;
351;SDS011;164;50.784;6.496;2024-01-10T02:06:36;6.70;;;4.30;;
351;SDS011;164;50.784;6.496;2024-01-10T02:09:04;5.10;;;4.60;;
351;SDS011;164;50.784;6.496;2024-01-10T02:11:31;4.30;;;3.60;;
351;SDS011;164;50.784;6.496;2024-01-10T02:13:58;3.75;;;3.33;;
351;SDS011;164;50.784;6.496;2024-01-10T02:16:25;5.25;;;3.80;;
351;SDS011;164;50.784;6.496;2024-01-10T02:18:54;5.43;;;3.65;;
351;SDS011;164;50.784;6.496;2024-01-10T02:21:21;8.63;;;4.70;;
351;SDS011;164;50.784;6.496;2024-01-10T02:23:48;5.55;;;3.60;;
351;SDS011;164;50.784;6.496;2024-01-10T02:26:17;4.68;;;3.75;;
351;SDS011;164;50.784;6.496;2024-01-10T02:28:44;5.38;;;4.18;;
351;SDS011;164;50.784;6.496;2024-01-10T02:31:14;4.40;;;3.28;;
351;SDS011;164;50.784;6.496;2024-01-10T02:33:41;3.90;;;3.63;;
351;SDS011;164;50.784;6.496;2024-01-10T02:36:08;5.68;;;3.83;;
351;SDS011;164;50.784;6.496;2024-01-10T02:38:35;5.15;;;3.97;;
351;SDS011;164;50.784;6.496;2024-01-10T02:41:02;5.47;;;5.03;;
351;SDS011;164;50.784;6.496;2024-01-10T02:43:31;6.13;;;4.10;;
351;SDS011;164;50.784;6.496;2024-01-10T02:45:58;9.25;;;3.97;;
351;SDS011;164;50.784;6.496;2024-01-10T02:48:25;10.35;;;6.35;;
351;SDS011;164;50.784;6.496;2024-01-10T02:50:52;8.88;;;4.13;;
351;SDS011;164;50.784;6.496;2024-01-10T02:53:20;5.75;;;4.50;;
351;SDS011;164;50.784;6.496;2024-01-10T02:55:48;5.10;;;3.75;;
351;SDS011;164;50.784;6.496;2024-01-10T02:58:15;6.85;;;4.65;;
351;SDS011;164;50.784;6.496;2024-01-10T03:00:44;3.95;;;3.35;;
351;SDS011;164;50.784;6.496;2024-01-10T03:03:11;4.57;;;4.32;;
351;SDS011;164;50.784;6.496;2024-01-10T03:05:39;6.45;;;5.38;;
351;SDS011;164;50.784;6.496;2024-01-10T03:08:06;5.35;;;3.65;;
351;SDS011;164;50.784;6.496;2024-01-10T03:10:33;3.55;;;2.95;;
351;SDS011;164;50.784;6.496;2024-01-10T03:13:00;4.70;;;3.50;;
351;SDS011;164;50.784;6.496;2024-01-10T03:15:28;4.00;;;3.55;;
351;SDS011;164;50.784;6.496;2024-01-10T03:17:57;5.35;;;4.05;;
351;SDS011;164;50.784;6.496;2024-01-10T03:20:24;6.60;;;4.82;;
351;SDS011;164;50.784;6.496;2024-01-10T03:22:52;4.60;;;3.28;;
351;SDS011;164;50.784;6.496;2024-01-10T03:25:19;3.30;;;3.10;;
351;SDS011;164;50.784;6.496;2024-01-10T03:27:46;4.85;;;3.30;;
351;SDS011;164;50.784;6.496;2024-01-10T03:30:14;10.30;;;4.90;;
351;SDS011;164;50.784;6.496;2024-01-10T03:32:43;6.60;;;3.42;;
351;SDS011;164;50.784;6.496;2024-01-10T03:35:12;4.90;;;4.63;;
351;SDS011;164;50.784;6.496;2024-01-10T03:37:39;6.43;;;4.65;;
351;SDS011;164;50.784;6.496;2024-01-10T03:40:06;4.53;;;4.13;;
351;SDS011;164;50.784;6.496;2024-01-10T03:42:34;3.40;;;3.20;;
351;SDS011;164;50.784;6.496;2024-01-10T03:45:01;9.90;;;4.70;;
351;SDS011;164;50.784;6.496;2024-01-10T03:47:28;5.40;;;4.40;;
351;SDS011;164;50.784;6.496;2024-01-10T03:49:55;6.22;;;4.80;;
351;SDS011;164;50.784;6.496;2024-01-10T03:52:24;3.92;;;2.55;;
351;SDS011;164;50.784;6.496;2024-01-10T03:54:51;3.85;;;3.65;;
351;SDS011;164;50.784;6.496;2024-01-10T03:57:18;5.60;;;4.40;;
351;SDS011;164;50.784;6.496;2024-01-10T03:59:46;6.72;;;4.00;;
351;SDS011;164;50.784;6.496;2024-01-10T04:02:13;5.13;;;4.20;;
351;SDS011;164;50.784;6.496;2024-01-10T04:04:40;6.88;;;4.03;;
351;SDS011;164;50.784;6.496;2024-01-10T04:07:07;6.85;;;3.63;;
351;SDS011;164;50.784;6.496;2024-01-10T04:09:36;4.13;;;3.17;;
351;SDS011;164;50.784;6.496;2024-01-10T04:12:03;4.50;;;4.20;;
351;SDS011;164;50.784;6.496;2024-01-10T04:14:31;3.65;;;2.55;;
351;SDS011;164;50.784;6.496;2024-01-10T04:16:58;4.82;;;4.28;;
351;SDS011;164;50.784;6.496;2024-01-10T04:19:26;5.63;;;4.20;;
351;SDS011;164;50.784;6.496;2024-01-10T04:21:53;3.90;;;3.58;;
351;SDS011;164;50.784;6.496;2024-01-10T04:24:20;3.20;;;3.05;;
351;SDS011;164;50.784;6.496;2024-01-10T04:26:49;4.43;;;2.88;;
351;SDS011;164;50.784;6.496;2024-01-10T04:29:16;4.03;;;2.88;;
351;SDS011;164;50.784;6.496;2024-01-10T04:31:43;10.90;;;5.10;;
351;SDS011;164;50.784;6.496;2024-01-10T04:34:10;3.83;;;3.63;;
351;SDS011;164;50.784;6.496;2024-01-10T04:36:38;6.80;;;4.13;;
351;SDS011;164;50.784;6.496;2024-01-10T04:39:05;7.85;;;4.55;;
351;SDS011;164;50.784;6.496;2024-01-10T04:41:32;5.20;;;4.78;;
351;SDS011;164;50.784;6.496;2024-01-10T04:44:01;4.55;;;3.70;;
351;SDS011;164;50.784;6.496;2024-01-10T04:46:28;5.35;;;5.00;;
351;SDS011;164;50.784;6.496;2024-01-10T04:48:59;5.00;;;4.32;;
351;SDS011;164;50.784;6.496;2024-01-10T04:51:26;7.78;;;4.60;;
351;SDS011;164;50.784;6.496;2024-01-10T04:53:53;6.80;;;5.72;;
351;SDS011;164;50.784;6.496;2024-01-10T04:56:20;14.50;;;5.35;;
351;SDS011;164;50.784;6.496;2024-01-10T04:58:47;4.53;;;3.55;;
351;SDS011;164;50.784;6.496;2024-01-10T05:01:16;12.52;;;6.10;;
351;SDS011;164;50.784;6.496;2024-01-10T05:03:43;3.97;;;3.50;;
351;SDS011;164;50.784;6.496;2024-01-10T05:06:10;7.05;;;4.53;;
351;SDS011;164;50.784;6.496;2024-01-10T05:08:38;9.27;;;4.82;;
351;SDS011;164;50.784;6.496;2024-01-10T05:11:05;6.63;;;4.72;;
351;SDS011;164;50.784;6.496;2024-01-10T05:13:32;6.30;;;4.90;;
351;SDS011;164;50.784;6.496;2024-01-10T05:15:59;7.55;;;5.70;;
351;SDS011;164;50.784;6.496;2024-01-10T05:18:28;4.85;;;4.55;;
351;SDS011;164;50.784;6.496;2024-01-10T05:20:55;5.50;;;4.55;;
351;SDS011;164;50.784;6.496;2024-01-10T05:23:22;6.38;;;5.57;;
351;SDS011;164;50.784;6.496;2024-01-10T05:25:50;6.95;;;6.00;;
351;SDS011;164;50.784;6.496;2024-01-10T05:28:17;5.95;;;5.57;;
351;SDS011;164;50.784;6.496;2024-01-10T05:30:44;6.80;;;4.55;;
351;SDS011;164;50.784;6.496;2024-01-10T05:33:11;4.95;;;4.35;;
351;SDS011;164;50.784;6.496;2024-01-10T05:35:40;5.07;;;4.15;;
351;SDS011;164;50.784;6.496;2024-01-10T05:38:07;6.00;;;3.85;;
351;SDS011;164;50.784;6.496;2024-01-10T05:40:34;4.32;;;4.07;;
351;SDS011;164;50.784;6.496;2024-01-10T05:43:01;9.63;;;4.88;;
351;SDS011;164;50.784;6.496;2024-01-10T05:45:29;6.43;;;4.22;;
351;SDS011;164;50.784;6.496;2024-01-10T05:47:56;8.05;;;5.75;;
351;SDS011;164;50.784;6.496;2024-01-10T05:50:23;6.85;;;5.25;;
351;SDS011;164;50.784;6.496;2024-01-10T05:52:52;5.38;;;4.60;;
351;SDS011;164;50.784;6.496;2024-01-10T05:55:19;7.47;;;5.05;;
351;SDS011;164;50.784;6.496;2024-01-10T05:57:46;5.07;;;3.55;;
351;SDS011;164;50.784;6.496;2024-01-10T06:00:14;9.57;;;4.32;;
351;SDS011;164;50.784;6.496;2024-01-10T06:02:41;5.50;;;4.80;;
351;SDS011;164;50.784;6.496;2024-01-10T06:05:09;8.05;;;5.15;;
351;SDS011;164;50.784;6.496;2024-01-10T06:07:36;7.43;;;4.88;;
351;SDS011;164;50.784;6.496;2024-01-10T06:10:06;7.30;;;5.88;;
351;SDS011;164;50.784;6.496;2024-01-10T06:12:34;5.35;;;5.05;;
351;SDS011;164;50.784;6.496;2024-01-10T06:15:03;10.55;;;6.18;;
351;SDS011;164;50.784;6.496;2024-01-10T06:17:31;4.43;;;4.10;;
351;SDS011;164;50.784;6.496;2024-01-10T06:19:58;5.80;;;4.25;;
351;SDS011;164;50.784;6.496;2024-01-10T06:22:26;9.00;;;5.53;;
351;SDS011;164;50.784;6.496;2024-01-10T06:24:53;7.93;;;5.18;;
351;SDS011;164;50.784;6.496;2024-01-10T06:27:21;9.38;;;6.18;;
351;SDS011;164;50.784;6.496;2024-01-10T06:29:49;8.38;;;7.35;;
351;SDS011;164;50.784;6.496;2024-01-10T06:32:16;8.18;;;6.18;;
351;SDS011;164;50.784;6.496;2024-01-10T06:34:43;7.70;;;4.60;;
351;SDS011;164;50.784;6.496;2024-01-10T06:37:10;9.30;;;6.43;;
351;SDS011;164;50.784;6.496;2024-01-10T06:39:37;11.85;;;6.93;;
351;SDS011;164;50.784;6.496;2024-01-10T06:42:05;4.47;;;4.10;;
351;SDS011;164;50.784;6.496;2024-01-10T06:44:34;8.23;;;6.13;;
351;SDS011;164;50.784;6.496;2024-01-10T06:47:02;7.50;;;5.35;;
351;SDS011;164;50.784;6.496;2024-01-10T06:49:29;9.38;;;6.97;;
351;SDS011;164;50.784;6.496;2024-01-10T06:51:57;5.80;;;5.22;;
351;SDS011;164;50.784;6.496;2024-01-10T06:54:25;8.70;;;7.18;;
351;SDS011;164;50.784;6.496;2024-01-10T06:56:52;6.88;;;5.35;;
351;SDS011;164;50.784;6.496;2024-01-10T06:59:20;10.07;;;7.00;;
351;SDS011;164;50.784;6.496;2024-01-10T07:01:52;7.93;;;5.00;;
351;SDS011;164;50.784;6.496;2024-01-10T07:04:21;7.28;;;6.95;;
351;SDS011;164;50.784;6.496;2024-01-10T07:06:49;6.28;;;5.25;;
351;SDS011;164;50.784;6.496;2024-01-10T07:09:16;8.18;;;6.18;;
351;SDS011;164;50.784;6.496;2024-01-10T07:11:44;6.68;;;5.53;;
351;SDS011;164;50.784;6.496;2024-01-10T07:14:12;9.90;;;7.25;;
351;SDS011;164;50.784;6.496;2024-01-10T07:16:39;9.30;;;5.45;;
351;SDS011;164;50.784;6.496;2024-01-10T07:19:11;7.05;;;4.82;;
351;SDS011;164;50.784;6.496;2024-01-10T07:21:39;5.50;;;3.92;;
351;SDS011;164;50.784;6.496;2024-01-10T07:24:06;7.20;;;6.57;;
351;SDS011;164;50.784;6.496;2024-01-10T07:26:35;7.65;;;5.90;;
351;SDS011;164;50.784;6.496;2024-01-10T07:29:02;4.95;;;3.65;;
351;SDS011;164;50.784;6.496;2024-01-10T07:31:33;6.05;;;4.60;;
351;SDS011;164;50.784;6.496;2024-01-10T07:34:00;6.00;;;4.75;;
351;SDS011;164;50.784;6.496;2024-01-10T07:36:31;7.38;;;4.97;;
351;SDS011;164;50.784;6.496;2024-01-10T07:38:59;5.53;;;4.70;;
351;SDS011;164;50.784;6.496;2024-01-10T07:41:26;5.53;;;4.22;;
351;SDS011;164;50.784;6.496;2024-01-10T07:43:53;5.60;;;3.67;;
351;SDS011;164;50.784;6.496;2024-01-10T07:46:21;5.03;;;4.72;;
351;SDS011;164;50.784;6.496;2024-01-10T07:48:48;4.32;;;4.05;;
351;SDS011;164;50.784;6.496;2024-01-10T07:51:15;5.05;;;4.38;;
351;SDS011;164;50.784;6.496;2024-01-10T07:53:44;6.10;;;4.68;;
351;SDS011;164;50.784;6.496;2024-01-10T07:56:12;6.38;;;4.22;;
351;SDS011;164;50.784;6.496;2024-01-10T07:58:39;6.75;;;5.13;;
351;SDS011;164;50.784;6.496;2024-01-10T08:01:06;8.27;;;6.28;;
351;SDS011;164;50.784;6.496;2024-01-10T08:03:36;6.43;;;3.97;;
351;SDS011;164;50.784;6.496;2024-01-10T08:06:04;6.00;;;5.13;;
351;SDS011;164;50.784;6.496;2024-01-10T08:08:32;6.45;;;5.30;;
351;SDS011;164;50.784;6.496;2024-01-10T08:11:01;6.47;;;4.90;;
351;SDS011;164;50.784;6.496;2024-01-10T08:13:28;8.95;;;5.22;;
351;SDS011;164;50.784;6.496;2024-01-10T08:15:55;9.23;;;6.55;;
351;SDS011;164;50.784;6.496;2024-01-10T08:18:22;5.38;;;5.07;;
351;SDS011;164;50.784;6.496;2024-01-10T08:20:50;6.50;;;5.07;;
351;SDS011;164;50.784;6.496;2024-01-10T08:23:17;5.35;;;5.05;;
351;SDS011;164;50.784;6.496;2024-01-10T08:25:45;5.47;;;4.55;;
351;SDS011;164;50.784;6.496;2024-01-10T08:28:14;6.75;;;4.85;;
351;SDS011;164;50.784;6.496;2024-01-10T08:30:41;5.22;;;4.68;;
351;SDS011;164;50.784;6.496;2024-01-10T08:33:09;9.30;;;5.30;;
351;SDS011;164;50.784;6.496;2024-01-10T08:35:36;5.90;;;5.07;;
351;SDS011;164;50.784;6.496;2024-01-10T08:38:04;6.13;;;4.50;;
351;SDS011;164;50.784;6.496;2024-01-10T08:40:34;6.80;;;5.50;;
351;SDS011;164;50.784;6.496;2024-01-10T08:43:02;6.63;;;5.40;;
351;SDS011;164;50.784;6.496;2024-01-10T08:45:31;12.10;;;5.65;;
351;SDS011;164;50.784;6.496;2024-01-10T08:47:58;8.02;;;6.05;;
351;SDS011;164;50.784;6.496;2024-01-10T08:50:26;8.57;;;6.25;;
351;SDS011;164;50.784;6.496;2024-01-10T08:52:54;7.53;;;6.03;;
351;SDS011;164;50.784;6.496;2024-01-10T08:55:21;6.15;;;4.93;;
351;SDS011;164;50.784;6.496;2024-01-10T08:57:48;8.07;;;5.90;;
351;SDS011;164;50.784;6.496;2024-01-10T09:00:16;7.05;;;4.72;;
351;SDS011;164;50.784;6.496;2024-01-10T09:02:44;6.47;;;5.40;;
351;SDS011;164;50.784;6.496;2024-01-10T09:05:11;7.63;;;5.80;;
351;SDS011;164;50.784;6.496;2024-01-10T09:07:44;7.03;;;5.07;;
351;SDS011;164;50.784;6.496;2024-01-10T09:10:16;7.63;;;6.15;;
351;SDS011;164;50.784;6.496;2024-01-10T09:12:46;9.90;;;6.53;;
351;SDS011;164;50.784;6.496;2024-01-10T09:15:15;8.63;;;5.00;;
351;SDS011;164;50.784;6.496;2024-01-10T09:17:42;9.10;;;6.15;;
351;SDS011;164;50.784;6.496;2024-01-10T09:20:12;6.15;;;5.57;;
351;SDS011;164;50.784;6.496;2024-01-10T09:22:57;8.50;;;5.53;;
351;SDS011;164;50.784;6.496;2024-01-10T09:25:25;8.90;;;5.93;;
351;SDS011;164;50.784;6.496;2024-01-10T09:27:52;8.40;;;6.72;;
351;SDS011;164;50.784;6.496;2024-01-10T09:30:20;7.60;;;6.18;;
351;SDS011;164;50.784;6.496;2024-01-10T09:32:49;9.70;;;6.78;;
351;SDS011;164;50.784;6.496;2024-01-10T09:35:17;11.30;;;5.72;;
351;SDS011;164;50.784;6.496;2024-01-10T09:37:45;8.32;;;6.20;;
351;SDS011;164;50.784;6.496;2024-01-10T09:40:13;5.70;;;5.35;;
351;SDS011;164;50.784;6.496;2024-01-10T09:42:41;9.98;;;6.30;;
351;SDS011;164;50.784;6.496;2024-01-10T09:45:08;9.35;;;6.65;;
351;SDS011;164;50.784;6.496;2024-01-10T09:47:38;8.95;;;6.32;;
351;SDS011;164;50.784;6.496;2024-01-10T09:50:08;8.02;;;6.35;;
351;SDS011;164;50.784;6.496;2024-01-10T09:52:41;11.65;;;6.53;;
351;SDS011;164;50.784;6.496;2024-01-10T09:55:08;9.30;;;6.55;;
351;SDS011;164;50.784;6.496;2024-01-10T09:57:36;11.10;;;6.65;;
351;SDS011;164;50.784;6.496;2024-01-10T10:00:04;7.45;;;5.85;;
351;SDS011;164;50.784;6.496;2024-01-10T10:02:35;11.27;;;9.07;;
351;SDS011;164;50.784;6.496;2024-01-10T10:05:07;6.72;;;5.53;;
351;SDS011;164;50.784;6.496;2024-01-10T10:07:44;13.40;;;8.93;;
351;SDS011;164;50.784;6.496;2024-01-10T10:10:11;8.98;;;7.18;;
351;SDS011;164;50.784;6.496;2024-01-10T10:12:43;9.00;;;7.82;;
351;SDS011;164;50.784;6.496;2024-01-10T10:15:11;10.23;;;7.63;;
351;SDS011;164;50.784;6.496;2024-01-10T10:17:39;8.95;;;8.45;;
351;SDS011;164;50.784;6.496;2024-01-10T10:20:11;10.65;;;7.43;;
351;SDS011;164;50.784;6.496;2024-01-10T10:22:40;10.98;;;7.82;;
351;SDS011;164;50.784;6.496;2024-01-10T10:25:09;11.02;;;8.75;;
351;SDS011;164;50.784;6.496;2024-01-10T10:27:36;9.20;;;6.80;;
351;SDS011;164;50.784;6.496;2024-01-10T10:30:05;14.00;;;8.20;;
351;SDS011;164;50.784;6.496;2024-01-10T10:32:34;8.93;;;7.07;;
351;SDS011;164;50.784;6.496;2024-01-10T10:35:02;10.85;;;6.82;;
351;SDS011;164;50.784;6.496;2024-01-10T10:37:30;9.77;;;6.40;;
351;SDS011;164;50.784;6.496;2024-01-10T10:39:57;12.13;;;8.60;;
351;SDS011;164;50.784;6.496;2024-01-10T10:42:26;11.43;;;8.05;;
351;SDS011;164;50.784;6.496;2024-01-10T10:44:55;9.55;;;6.50;;
351;SDS011;164;50.784;6.496;2024-01-10T10:47:24;11.15;;;7.47;;
351;SDS011;164;50.784;6.496;2024-01-10T10:49:53;9.32;;;8.15;;
351;SDS011;164;50.784;6.496;2024-01-10T10:52:21;10.57;;;7.85;;
351;SDS011;164;50.784;6.496;2024-01-10T10:54:49;12.93;;;7.90;;
351;SDS011;164;50.784;6.496;2024-01-10T10:57:20;10.95;;;7.22;;
351;SDS011;164;50.784;6.496;2024-01-10T10:59:49;9.65;;;7.47;;
351;SDS011;164;50.784;6.496;2024-01-10T11:02:19;12.43;;;8.52;;
351;SDS011;164;50.784;6.496;2024-01-10T11:04:48;13.63;;;9.75;;
351;SDS011;164;50.784;6.496;2024-01-10T11:07:16;12.05;;;7.15;;
351;SDS011;164;50.784;6.496;2024-01-10T11:09:43;12.68;;;8.18;;
351;SDS011;164;50.784;6.496;2024-01-10T11:12:16;9.15;;;8.38;;
351;SDS011;164;50.784;6.496;2024-01-10T11:14:55;17.05;;;8.55;;
351;SDS011;164;50.784;6.496;2024-01-10T11:20:17;10.27;;;7.82;;
351;SDS011;164;50.784;6.496;2024-01-10T11:22:53;12.60;;;8.90;;
351;SDS011;164;50.784;6.496;2024-01-10T11:25:25;16.17;;;7.85;;
351;SDS011;164;50.784;6.496;2024-01-10T11:27:54;11.43;;;8.65;;
351;SDS011;164;50.784;6.496;2024-01-10T11:30:31;11.50;;;8.07;;
351;SDS011;164;50.784;6.496;2024-01-10T11:33:00;10.73;;;8.32;;
351;SDS011;164;50.784;6.496;2024-01-10T11:35:28;11.77;;;8.82;;
351;SDS011;164;50.784;6.496;2024-01-10T11:37:59;11.27;;;7.75;;
351;SDS011;164;50.784;6.496;2024-01-10T11:43:12;13.38;;;8.15;;
351;SDS011;164;50.784;6.496;2024-01-10T11:45:51;12.95;;;9.13;;
351;SDS011;164;50.784;6.496;2024-01-10T11:48:25;10.57;;;8.27;;
351;SDS011;164;50.784;6.496;2024-01-10T11:51:02;12.25;;;8.88;;
351;SDS011;164;50.784;6.496;2024-01-10T11:53:39;14.32;;;8.38;;
351;SDS011;164;50.784;6.496;2024-01-10T11:56:11;14.27;;;8.90;;
351;SDS011;164;50.784;6.496;2024-01-10T11:58:53;12.55;;;10.27;;
351;SDS011;164;50.784;6.496;2024-01-10T12:01:22;12.48;;;8.20;;
351;SDS011;164;50.784;6.496;2024-01-10T12:03:50;11.88;;;8.02;;
351;SDS011;164;50.784;6.496;2024-01-10T12:06:19;12.40;;;8.32;;
351;SDS011;164;50.784;6.496;2024-01-10T12:08:48;11.00;;;7.40;;
351;SDS011;164;50.784;6.496;2024-01-10T12:11:15;11.20;;;8.63;;
351;SDS011;164;50.784;6.496;2024-01-10T12:13:42;17.75;;;8.93;;
351;SDS011;164;50.784;6.496;2024-01-10T12:16:10;12.82;;;7.85;;
351;SDS011;164;50.784;6.496;2024-01-10T12:18:38;11.80;;;9.13;;
351;SDS011;164;50.784;6.496;2024-01-10T12:21:05;15.80;;;8.77;;
351;SDS011;164;50.784;6.496;2024-01-10T12:23:34;14.35;;;8.43;;
351;SDS011;164;50.784;6.496;2024-01-10T12:26:01;11.38;;;7.53;;
351;SDS011;164;50.784;6.496;2024-01-10T12:28:29;10.23;;;7.70;;
351;SDS011;164;50.784;6.496;2024-01-10T12:30:57;15.05;;;8.40;;
351;SDS011;164;50.784;6.496;2024-01-10T12:33:24;10.65;;;7.95;;
351;SDS011;164;50.784;6.496;2024-01-10T12:36:07;12.98;;;8.10;;
351;SDS011;164;50.784;6.496;2024-01-10T12:38:34;13.98;;;8.40;;
351;SDS011;164;50.784;6.496;2024-01-10T12:41:03;11.18;;;7.82;;
351;SDS011;164;50.784;6.496;2024-01-10T12:43:30;14.95;;;8.93;;
351;SDS011;164;50.784;6.496;2024-01-10T12:46:06;11.63;;;8.13;;
351;SDS011;164;50.784;6.496;2024-01-10T12:48:35;10.82;;;7.70;;
351;SDS011;164;50.784;6.496;2024-01-10T12:51:03;12.30;;;7.78;;
351;SDS011;164;50.784;6.496;2024-01-10T12:53:36;13.85;;;8.18;;
351;SDS011;164;50.784;6.496;2024-01-10T12:56:04;10.82;;;8.70;;
351;SDS011;164;50.784;6.496;2024-01-10T12:58:32;10.43;;;7.25;;
351;SDS011;164;50.784;6.496;2024-01-10T13:01:00;10.07;;;7.07;;
351;SDS011;164;50.784;6.496;2024-01-10T13:03:28;10.80;;;6.95;;
351;SDS011;164;50.784;6.496;2024-01-10T13:05:56;11.15;;;7.30;;
351;SDS011;164;50.784;6.496;2024-01-10T13:08:23;15.07;;;8.23;;
351;SDS011;164;50.784;6.496;2024-01-10T13:10:52;12.25;;;8.27;;
351;SDS011;164;50.784;6.496;2024-01-10T13:13:20;11.15;;;7.93;;
351;SDS011;164;50.784;6.496;2024-01-10T13:15:48;16.50;;;8.73;;
351;SDS011;164;50.784;6.496;2024-01-10T13:18:16;9.82;;;7.63;;
351;SDS011;164;50.784;6.496;2024-01-10T13:20:44;10.43;;;7.10;;
351;SDS011;164;50.784;6.496;2024-01-10T13:23:12;10.55;;;6.75;;
351;SDS011;164;50.784;6.496;2024-01-10T13:25:40;11.30;;;8.13;;
351;SDS011;164;50.784;6.496;2024-01-10T13:28:09;10.77;;;7.68;;
351;SDS011;164;50.784;6.496;2024-01-10T13:30:37;12.50;;;8.00;;
351;SDS011;164;50.784;6.496;2024-01-10T13:33:06;11.82;;;9.25;;
351;SDS011;164;50.784;6.496;2024-01-10T13:35:34;13.68;;;8.63;;
351;SDS011;164;50.784;6.496;2024-01-10T13:38:02;9.60;;;7.85;;
351;SDS011;164;50.784;6.496;2024-01-10T13:40:29;13.55;;;7.60;;
351;SDS011;164;50.784;6.496;2024-01-10T13:42:58;12.82;;;8.05;;
351;SDS011;164;50.784;6.496;2024-01-10T13:45:29;10.63;;;7.88;;
351;SDS011;164;50.784;6.496;2024-01-10T13:47:56;12.65;;;8.07;;
351;SDS011;164;50.784;6.496;2024-01-10T13:50:25;9.95;;;7.20;;
351;SDS011;164;50.784;6.496;2024-01-10T13:52:53;13.90;;;7.93;;
351;SDS011;164;50.784;6.496;2024-01-10T13:55:21;12.07;;;7.65;;
351;SDS011;164;50.784;6.496;2024-01-10T13:57:49;12.02;;;7.60;;
351;SDS011;164;50.784;6.496;2024-01-10T14:00:18;11.70;;;8.77;;
351;SDS011;164;50.784;6.496;2024-01-10T14:02:48;8.75;;;6.88;;
351;SDS011;164;50.784;6.496;2024-01-10T14:05:15;10.30;;;7.47;;
351;SDS011;164;50.784;6.496;2024-01-10T14:07:42;12.20;;;8.15;;
351;SDS011;164;50.784;6.496;2024-01-10T14:10:11;9.68;;;6.63;;
351;SDS011;164;50.784;6.496;2024-01-10T14:12:39;10.07;;;7.85;;
351;SDS011;164;50.784;6.496;2024-01-10T14:15:06;9.73;;;6.97;;
351;SDS011;164;50.784;6.496;2024-01-10T14:17:34;11.60;;;8.20;;
351;SDS011;164;50.784;6.496;2024-01-10T14:20:03;11.25;;;6.95;;
351;SDS011;164;50.784;6.496;2024-01-10T14:22:33;13.93;;;7.25;;
351;SDS011;164;50.784;6.496;2024-01-10T14:25:01;10.30;;;8.02;;
351;SDS011;164;50.784;6.496;2024-01-10T14:27:30;10.77;;;6.88;;
351;SDS011;164;50.784;6.496;2024-01-10T14:29:58;11.43;;;7.20;;
351;SDS011;164;50.784;6.496;2024-01-10T14:32:28;11.10;;;6.90;;
351;SDS011;164;50.784;6.496;2024-01-10T14:34:58;10.07;;;6.85;;
351;SDS011;164;50.784;6.496;2024-01-10T14:37:27;11.75;;;8.85;;
351;SDS011;164;50.784;6.496;2024-01-10T14:39:54;13.20;;;7.55;;
351;SDS011;164;50.784;6.496;2024-01-10T14:42:21;9.05;;;6.85;;
351;SDS011;164;50.784;6.496;2024-01-10T14:44:49;8.70;;;6.75;;
351;SDS011;164;50.784;6.496;2024-01-10T14:47:16;11.43;;;7.78;;
351;SDS011;164;50.784;6.496;2024-01-10T14:49:44;12.60;;;9.30;;
351;SDS011;164;50.784;6.496;2024-01-10T14:52:11;11.30;;;7.65;;
351;SDS011;164;50.784;6.496;2024-01-10T14:54:40;10.68;;;7.05;;
351;SDS011;164;50.784;6.496;2024-01-10T14:57:07;11.05;;;6.70;;
351;SDS011;164;50.784;6.496;2024-01-10T14:59:35;10.95;;;7.80;;
351;SDS011;164;50.784;6.496;2024-01-10T15:02:02;12.88;;;8.93;;
351;SDS011;164;50.784;6.496;2024-01-10T15:04:32;11.95;;;9.10;;
351;SDS011;164;50.784;6.496;2024-01-10T15:07:00;14.35;;;9.35;;
351;SDS011;164;50.784;6.496;2024-01-10T15:09:27;11.13;;;7.88;;
351;SDS011;164;50.784;6.496;2024-01-10T15:11:56;11.82;;;8.65;;
351;SDS011;164;50.784;6.496;2024-01-10T15:14:23;10.43;;;7.50;;
351;SDS011;164;50.784;6.496;2024-01-10T15:16:50;11.38;;;8.90;;
351;SDS011;164;50.784;6.496;2024-01-10T15:19:18;12.18;;;7.32;;
351;SDS011;164;50.784;6.496;2024-01-10T15:21:46;8.85;;;7.75;;
351;SDS011;164;50.784;6.496;2024-01-10T15:24:13;13.25;;;9.52;;
351;SDS011;164;50.784;6.496;2024-01-10T15:26:41;10.82;;;7.93;;
351;SDS011;164;50.784;6.496;2024-01-10T15:29:10;12.50;;;8.40;;
351;SDS011;164;50.784;6.496;2024-01-10T15:31:37;12.25;;;8.40;;
351;SDS011;164;50.784;6.496;2024-01-10T15:34:05;10.80;;;8.10;;
351;SDS011;164;50.784;6.496;2024-01-10T15:36:32;13.98;;;9.15;;
351;SDS011;164;50.784;6.496;2024-01-10T15:39:00;11.68;;;7.45;;
351;SDS011;164;50.784;6.496;2024-01-10T15:41:29;13.82;;;8.65;;
351;SDS011;164;50.784;6.496;2024-01-10T15:43:56;11.35;;;7.85;;
351;SDS011;164;50.784;6.496;2024-01-10T15:46:25;11.02;;;6.28;;
351;SDS011;164;50.784;6.496;2024-01-10T15:48:53;10.18;;;7.97;;
351;SDS011;164;50.784;6.496;2024-01-10T15:51:20;12.63;;;8.88;;